METAR Data
IDs: Format: Raw Decoded Include TAF

Data at: 2145 UTC 24 Mar 2019

KELA 242135Z AUTO 18011G17KT 10SM SCT039 SCT045 OVC050 26/18 A3003 RMK AO2 T02590184
KELA 242115Z AUTO 19011G16KT 10SM SCT050 OVC055 26/18 A3003 RMK AO2 T02590183
KELA 242055Z AUTO 20012G17KT 10SM SCT035 OVC050 26/18 A3004 RMK AO2 T02570182
KELA 242035Z AUTO 20012G17KT 10SM SCT035 OVC050 26/18 A3004 RMK AO2 T02550183
KELA 242015Z AUTO 20010G16KT 10SM SCT035 SCT048 OVC050 26/18 A3004 RMK AO2 T02600181
KELA 241955Z AUTO 19009G18KT 170V230 10SM SCT035 SCT042 OVC050 27/18 A3005 RMK AO2 T02700184
KELA 241935Z AUTO 19010G17KT 10SM SCT033 SCT042 BKN050 26/18 A3005 RMK AO2 T02610184
KELA 241915Z AUTO 18011G16KT 10SM SCT033 SCT039 OVC050 27/18 A3005 RMK AO2 T02650184
KELA 241855Z AUTO 20009KT 10SM SCT033 BKN040 OVC050 25/18 A3006 RMK AO2 T02540182
KELA 241835Z AUTO 21007G14KT 10SM BKN033 BKN040 OVC050 26/18 A3007 RMK AO2 T02620182
KELA 241815Z AUTO 21009KT 10SM BKN033 OVC041 26/18 A3008 RMK AO2 T02590184
KELA 241755Z AUTO 21007KT 10SM SCT029 BKN041 OVC048 25/18 A3009 RMK AO2 T02480181 10257 20161
KELA 241735Z AUTO 21007KT 10SM SCT029 BKN035 OVC046 25/19 A3010 RMK AO2 T02470185
KELA 241715Z AUTO 23007KT 10SM SCT023 BKN027 OVC035 24/18 A3010 RMK AO2 T02400184
KELA 241655Z AUTO 21006KT 10SM BKN019 OVC026 23/18 A3011 RMK AO2 T02280183
KELA 241635Z AUTO 20008KT 10SM OVC017 23/19 A3012 RMK AO2 T02260186
KELA 241615Z AUTO 20008G14KT 10SM BKN015 OVC020 22/19 A3012 RMK AO2 T02200187
KELA 241555Z AUTO 17008KT 10SM OVC013 22/19 A3012 RMK AO2 T02190186
KELA 241535Z AUTO 18007KT 10SM OVC011 22/19 A3012 RMK AO2 T02200188
KELA 241515Z AUTO 17006KT 10SM BKN007 OVC015 21/18 A3013 RMK AO2 T02080184
KELA 241455Z AUTO 16005KT 10SM BKN007 OVC017 20/18 A3012 RMK AO2 T01980181
KELA 241435Z AUTO 16007KT 10SM OVC005 20/18 A3012 RMK AO2 T01950180
KELA 241415Z AUTO 16007KT 10SM OVC005 19/18 A3011 RMK AO2 T01890176
KELA 241355Z AUTO 14005KT 10SM OVC005 18/17 A3011 RMK AO2 T01800171
KELA 241335Z AUTO 14006KT 10SM OVC005 18/17 A3010 RMK AO2 T01750167
KELA 241315Z AUTO 14004KT 10SM OVC007 17/16 A3009 RMK AO2 T01680162
KELA 241255Z AUTO 13004KT 10SM OVC007 17/16 A3010 RMK AO2 T01650160
KELA 241235Z AUTO 13004KT 10SM SCT009 BKN015 OVC032 16/16 A3010 RMK AO2 T01610156
KELA 241215Z AUTO 13003KT 10SM OVC032 16/16 A3010 RMK AO2 T01640157
KELA 241155Z AUTO 00000KT 10SM SCT014 SCT019 OVC032 16/16 A3009 RMK AO2 T01630156 10165 20146
KELA 241135Z AUTO 00000KT 10SM SCT010 BKN016 OVC024 17/16 A3009 RMK AO2 T01650156
KELA 241115Z AUTO 00000KT 10SM BKN010 OVC016 16/16 A3009 RMK AO2 T01620155
KELA 241055Z AUTO 00000KT 10SM OVC010 16/15 A3008 RMK AO2 T01620153
KELA 241035Z AUTO 00000KT 10SM OVC010 16/15 A3009 RMK AO2 T01600151
KELA 241015Z AUTO 00000KT 10SM OVC010 16/15 A3008 RMK AO2 T01580150
KELA 240955Z AUTO 00000KT 10SM OVC012 16/15 A3008 RMK AO2 T01560149
KELA 240935Z AUTO 00000KT 10SM OVC012 16/15 A3007 RMK AO2 T01570149
KELA 240915Z AUTO 00000KT 10SM SCT014 BKN021 OVC055 15/15 A3007 RMK AO2 T01530146
KELA 240855Z AUTO 00000KT 10SM SCT014 SCT021 BKN055 15/14 A3007 RMK AO2 T01470141
KELA 240835Z AUTO 12003KT 10SM SCT021 BKN055 15/14 A3007 RMK AO2 T01500142
KELA 240815Z AUTO 12003KT 10SM BKN021 15/14 A3007 RMK AO2 T01520144
KELA 240755Z AUTO 09004KT 10SM OVC023 16/15 A3008 RMK AO2 T01580147
KELA 240735Z AUTO 09004KT 10SM OVC025 16/15 A3009 RMK AO2 T01580148
KELA 240715Z AUTO 09003KT 10SM OVC025 16/15 A3009 RMK AO2 T01600148
KELA 240655Z AUTO 09003KT 10SM OVC025 16/15 A3009 RMK AO2 T01600150
KELA 240635Z AUTO 10003KT 10SM OVC025 16/15 A3009 RMK AO2 T01620150
KELA 240615Z AUTO 00000KT 10SM OVC025 16/15 A3009 RMK AO2 T01620150
KELA 240555Z AUTO 15003KT 10SM SCT025 16/15 A3009 RMK AO2 T01600149 10212 20160 402470135
KELA 240535Z AUTO 15003KT 10SM CLR 16/15 A3010 RMK AO2 T01640150
KELA 240515Z AUTO 15004KT 10SM SCT060 17/15 A3009 RMK AO2 T01700153
KELA 240455Z AUTO 15006KT 10SM SCT027 BKN040 OVC060 17/16 A3010 RMK AO2 T01710155
KELA 240435Z AUTO 00000KT 10SM OVC027 18/16 A3012 RMK AO2 T01760156
KELA 240415Z AUTO 00000KT 10SM OVC027 18/16 A3012 RMK AO2 T01790156
KELA 240355Z AUTO 00000KT 10SM BKN025 OVC037 18/16 A3012 RMK AO2 T01800157
KELA 240335Z AUTO 14003KT 10SM BKN025 OVC035 18/16 A3011 RMK AO2 T01770155
KELA 240315Z AUTO 15004KT 10SM OVC025 18/16 A3011 RMK AO2 T01810156
KELA 240255Z AUTO 15004KT 10SM OVC025 18/16 A3010 RMK AO2 T01820156
KELA 240235Z AUTO 15008KT 10SM BKN027 BKN033 18/16 A3009 RMK AO2 T01800155
KELA 240215Z AUTO 16007KT 10SM CLR 18/16 A3010 RMK AO2 T01830155
KELA 240155Z AUTO 15008KT 10SM CLR 19/16 A3009 RMK AO2 T01850155
KELA 240135Z AUTO 15008KT 10SM SCT029 19/15 A3008 RMK AO2 T01880152
KELA 240115Z AUTO 16012G15KT 10SM SCT030 19/15 A3007 RMK AO2 T01930152
KELA 240055Z AUTO 16012G16KT 10SM CLR 20/15 A3006 RMK AO2 T01970154
KELA 240035Z AUTO 16011KT 10SM SCT047 SCT090 20/15 A3007 RMK AO2 T02020153
KELA 240015Z AUTO 17010G18KT 10SM BKN090 21/15 A3008 RMK AO2 T02070151
KELA 232355Z AUTO 17011G16KT 10SM OVC090 21/15 A3007 RMK AO2 T02120153 10247 20212
KELA 232335Z AUTO 15012G19KT 10SM SCT060 OVC090 22/15 A3007 RMK AO2 T02180152
KELA 232315Z AUTO 16012G18KT 10SM SCT035 BKN060 OVC090 22/15 A3007 RMK AO2 T02220152
KELA 232255Z AUTO 16013G19KT 10SM SCT035 OVC060 22/15 A3007 RMK AO2 T02240151
KELA 232235Z AUTO 16012G18KT 10SM SCT037 OVC050 23/15 A3006 RMK AO2 T02270150
KELA 232215Z AUTO 17014G18KT 10SM SCT037 OVC050 23/15 A3007 RMK AO2 T02320148
KELA 232155Z AUTO 16012G18KT 10SM SCT037 BKN050 OVC055 23/15 A3006 RMK AO2 T02340152
KELA 232135Z AUTO 17013G16KT 10SM SCT039 BKN048 OVC085 24/15 A3007 RMK AO2 T02400151
KELA 232115Z AUTO 16012G17KT 10SM SCT043 BKN050 OVC085 24/15 A3007 RMK AO2 T02370147
KELA 232055Z AUTO 17014G18KT 10SM SCT037 BKN047 OVC055 24/15 A3007 RMK AO2 T02350150
KELA 232035Z AUTO 15013G17KT 10SM BKN037 BKN044 OVC049 24/16 A3007 RMK AO2 T02400155
KELA 232015Z AUTO 15011G20KT 10SM SCT038 BKN046 OVC090 24/15 A3007 RMK AO2 T02400152
KELA 231955Z AUTO 17011KT 10SM SCT034 BKN041 OVC090 24/14 A3009 RMK AO2 T02400144
KELA 231935Z AUTO 16013G17KT 10SM SCT033 BKN043 OVC090 24/15 A3009 RMK AO2 T02370152
KELA 231915Z AUTO 14012G18KT 10SM SCT029 BKN039 BKN090 24/16 A3010 RMK AO2 T02370160
KELA 231855Z AUTO 17010G18KT 10SM SCT027 BKN080 OVC100 23/16 A3010 RMK AO2 T02310160
KELA 231835Z AUTO 15012G20KT 10SM BKN025 BKN033 OVC080 23/17 A3011 RMK AO2 T02290165
KELA 231815Z AUTO 16011KT 10SM SCT023 BKN027 OVC080 22/16 A3013 RMK AO2 T02170162
KELA 231755Z AUTO 15013G18KT 10SM SCT023 OVC080 21/16 A3013 RMK AO2 T02120163 10212 20145
KELA 231735Z AUTO 15011KT 10SM OVC080 21/17 A3013 RMK AO2 T02060166
KELA 231715Z AUTO 15010G15KT 10SM SCT070 OVC090 20/16 A3013 RMK AO2 LTG DSNT N T02010164
KELA 231655Z AUTO 14011G16KT 10SM OVC100 20/16 A3014 RMK AO2 T02010164
KELA 231635Z AUTO 12007KT 10SM SCT075 OVC090 19/16 A3014 RMK AO2 T01940163
KELA 231615Z AUTO 12005KT 10SM OVC075 19/16 A3015 RMK AO2 T01880160
KELA 231555Z AUTO 13006KT 10SM BKN075 OVC085 18/16 A3015 RMK AO2 T01830158
KELA 231535Z AUTO 13005KT 10SM BKN075 OVC085 18/16 A3015 RMK AO2 T01820157
KELA 231515Z AUTO 13005KT 10SM SCT028 BKN075 OVC085 18/16 A3015 RMK AO2 T01800155
KELA 231455Z AUTO 13005KT 10SM SCT028 OVC085 18/15 A3014 RMK AO2 LTG DSNT N T01760153
KELA 231435Z AUTO 13007KT 10SM OVC075 17/15 A3013 RMK AO2 T01710151
KELA 231415Z AUTO 12006KT 10SM OVC075 17/15 A3012 RMK AO2 T01660148
KELA 231355Z AUTO 11005KT 10SM OVC075 16/15 A3012 RMK AO2 LTG DSNT N T01620146
KELA 231335Z AUTO 00000KT 10SM OVC075 16/14 A3011 RMK AO2 T01570144
KELA 231315Z AUTO 11003KT 10SM OVC075 15/14 A3010 RMK AO2 LTG DSNT N T01520141
KELA 231255Z AUTO 13005KT 10SM OVC075 15/14 A3009 RMK AO2 T01490139
KELA 231235Z AUTO 00000KT 10SM BKN075 15/14 A3010 RMK AO2 T01460137
KELA 231215Z AUTO 15004KT 10SM BKN075 15/14 A3009 RMK AO2 T01450136
KELA 231155Z AUTO 14006KT 10SM OVC075 15/14 A3007 RMK AO2 T01450136 10148 20135
KELA 231135Z AUTO 14005KT 10SM BKN075 14/14 A3007 RMK AO2 T01430135
KELA 231115Z AUTO 13005KT 10SM CLR 14/13 A3006 RMK AO2 T01400132
KELA 231055Z AUTO 13004KT 10SM CLR 14/13 A3005 RMK AO2 T01380131
KELA 231035Z AUTO 14004KT 10SM CLR 14/13 A3005 RMK AO2 T01350130
KELA 231015Z AUTO 14004KT 10SM SCT070 14/13 A3005 RMK AO2 T01350128
KELA 230955Z AUTO 14003KT 10SM BKN070 14/13 A3005 RMK AO2 T01390130